EXS19BR EGPF-LGKR
Flight info
| Callsign | EXS19BR |
|---|---|
| Flight time | N/A |
| Altitude | 35000 |
| Route | NORBO Y96 HAVEN DCT GODOS DCT BERGI DCT MISGO DCT ASBON DCT TUSUK DCT UTABA DCT BEMKI DCT ELMEM DCT DIRAB DCT NIVAS DCT PEVAL DCT SOMIG DCT AIOSA DCT ENOXA DCT KAPPO DCT TIGRA |
| Aircraft | B738/M-SDE2E3FGHIRWXY/LB1 |
Departure
| Time | N/A |
|---|---|
| Airport | Glasgow Airport (EGPF) |
Arrival
| Time | 2026-05-03 22:46 |
|---|---|
| Airport | Corfu Ioannis Kapodistrias International Airport (LGKR) |
| Time | Latitude | Longitude | Altitude | Speed | Heading |
|---|---|---|---|---|---|
| 2026-05-03 20:15 | 52.56976 | 4.70944 | 34910 ft | 439 kts | 135° |
| 2026-05-03 20:15 | 52.53027 | 4.78603 | 34912 ft | 439 kts | 135° |
| 2026-05-03 20:16 | 52.49070 | 4.86253 | 34913 ft | 439 kts | 135° |
| 2026-05-03 20:16 | 52.45107 | 4.93891 | 34916 ft | 439 kts | 135° |
| 2026-05-03 20:17 | 52.41140 | 5.01516 | 34912 ft | 439 kts | 135° |
| 2026-05-03 20:17 | 52.37200 | 5.09066 | 34917 ft | 439 kts | 135° |
| 2026-05-03 20:18 | 52.33200 | 5.16707 | 34916 ft | 439 kts | 135° |
| 2026-05-03 20:18 | 52.29224 | 5.24279 | 34915 ft | 439 kts | 135° |
| 2026-05-03 20:19 | 52.25276 | 5.31776 | 34916 ft | 438 kts | 136° |
| 2026-05-03 20:19 | 52.21297 | 5.39310 | 34918 ft | 438 kts | 136° |
| 2026-05-03 20:20 | 52.17320 | 5.46817 | 34924 ft | 437 kts | 136° |
| 2026-05-03 20:20 | 52.13342 | 5.54302 | 34927 ft | 437 kts | 136° |
| 2026-05-03 20:21 | 52.09361 | 5.61771 | 34933 ft | 436 kts | 136° |
| 2026-05-03 20:21 | 52.05381 | 5.69218 | 34938 ft | 436 kts | 136° |
| 2026-05-03 20:22 | 52.01400 | 5.76643 | 34937 ft | 436 kts | 136° |
| 2026-05-03 20:22 | 51.97415 | 5.84054 | 34940 ft | 435 kts | 136° |
| 2026-05-03 20:23 | 51.93430 | 5.91444 | 34937 ft | 435 kts | 136° |
| 2026-05-03 20:23 | 51.89448 | 5.98806 | 34934 ft | 434 kts | 136° |
| 2026-05-03 20:24 | 51.85469 | 6.06141 | 34930 ft | 433 kts | 136° |
| 2026-05-03 20:24 | 51.82158 | 6.12228 | 34934 ft | 433 kts | 136° |
| 2026-05-03 20:25 | 51.78181 | 6.19521 | 34933 ft | 432 kts | 137° |
| 2026-05-03 20:25 | 51.74208 | 6.26786 | 34934 ft | 432 kts | 137° |
| 2026-05-03 20:26 | 51.70232 | 6.34035 | 34936 ft | 431 kts | 137° |
| 2026-05-03 20:26 | 51.66258 | 6.41259 | 34937 ft | 430 kts | 137° |
| 2026-05-03 20:27 | 51.62282 | 6.48466 | 34938 ft | 430 kts | 137° |
| 2026-05-03 20:27 | 51.58304 | 6.55656 | 34939 ft | 430 kts | 137° |
| 2026-05-03 20:28 | 51.54325 | 6.62829 | 34950 ft | 430 kts | 137° |
| 2026-05-03 20:28 | 51.50371 | 6.69938 | 34954 ft | 430 kts | 137° |
| 2026-05-03 20:29 | 51.46356 | 6.77137 | 34956 ft | 430 kts | 137° |
| 2026-05-03 20:29 | 51.42394 | 6.84219 | 34959 ft | 429 kts | 137° |
| 2026-05-03 20:30 | 51.37949 | 6.90368 | 34961 ft | 418 kts | 153° |
| 2026-05-03 20:30 | 51.33010 | 6.95270 | 34963 ft | 417 kts | 153° |
| 2026-05-03 20:31 | 51.28032 | 7.00179 | 34962 ft | 418 kts | 153° |
| 2026-05-03 20:31 | 51.23130 | 7.05058 | 34966 ft | 418 kts | 153° |
| 2026-05-03 20:32 | 51.18195 | 7.09987 | 34959 ft | 418 kts | 153° |
| 2026-05-03 20:32 | 51.13263 | 7.14908 | 34979 ft | 418 kts | 153° |
| 2026-05-03 20:33 | 51.08324 | 7.19823 | 34986 ft | 419 kts | 153° |
| 2026-05-03 20:33 | 51.03380 | 7.24730 | 34988 ft | 419 kts | 153° |
| 2026-05-03 20:34 | 50.98440 | 7.29621 | 34989 ft | 419 kts | 153° |
| 2026-05-03 20:34 | 50.93495 | 7.34503 | 34989 ft | 419 kts | 153° |
| 2026-05-03 20:35 | 50.88549 | 7.39374 | 34988 ft | 419 kts | 153° |
| 2026-05-03 20:35 | 50.83605 | 7.44232 | 34991 ft | 418 kts | 153° |
| 2026-05-03 20:36 | 50.78653 | 7.49086 | 34991 ft | 418 kts | 153° |
| 2026-05-03 20:36 | 50.73701 | 7.53928 | 34985 ft | 419 kts | 153° |
| 2026-05-03 20:37 | 50.68782 | 7.58860 | 34989 ft | 420 kts | 151° |
| 2026-05-03 20:37 | 50.63912 | 7.63940 | 34987 ft | 420 kts | 151° |
| 2026-05-03 20:38 | 50.59045 | 7.69009 | 34987 ft | 420 kts | 151° |
| 2026-05-03 20:38 | 50.54166 | 7.74053 | 34988 ft | 420 kts | 151° |
| 2026-05-03 20:39 | 50.49277 | 7.79081 | 34991 ft | 420 kts | 151° |
| 2026-05-03 20:39 | 50.44392 | 7.84092 | 34989 ft | 420 kts | 152° |
| 2026-05-03 20:40 | 50.39497 | 7.89100 | 34988 ft | 420 kts | 151° |
| 2026-05-03 20:40 | 50.34635 | 7.94063 | 34984 ft | 420 kts | 151° |
| 2026-05-03 20:41 | 50.29740 | 7.99048 | 34986 ft | 420 kts | 152° |
| 2026-05-03 20:41 | 50.24842 | 8.04023 | 34985 ft | 420 kts | 151° |
| 2026-05-03 20:42 | 50.19948 | 8.08983 | 34982 ft | 419 kts | 152° |
| 2026-05-03 20:42 | 50.15060 | 8.13924 | 34992 ft | 419 kts | 152° |
| 2026-05-03 20:43 | 50.09967 | 8.18163 | 35003 ft | 413 kts | 159° |
| 2026-05-03 20:43 | 50.04738 | 8.21885 | 35002 ft | 413 kts | 160° |
| 2026-05-03 20:44 | 49.99511 | 8.25600 | 35002 ft | 413 kts | 159° |
| 2026-05-03 20:44 | 49.94293 | 8.29335 | 35015 ft | 413 kts | 159° |
| 2026-05-03 20:45 | 49.89077 | 8.33076 | 35014 ft | 413 kts | 159° |
| 2026-05-03 20:45 | 49.83864 | 8.36810 | 35008 ft | 413 kts | 159° |
| 2026-05-03 20:46 | 49.78651 | 8.40537 | 34998 ft | 413 kts | 159° |
| 2026-05-03 20:46 | 49.73434 | 8.44256 | 34999 ft | 413 kts | 159° |
| 2026-05-03 20:47 | 49.68218 | 8.47966 | 35009 ft | 413 kts | 159° |
| 2026-05-03 20:47 | 49.63030 | 8.51647 | 35012 ft | 413 kts | 159° |
| 2026-05-03 20:48 | 49.57808 | 8.55344 | 35020 ft | 413 kts | 159° |
| 2026-05-03 20:48 | 49.52577 | 8.59038 | 35022 ft | 414 kts | 159° |
| 2026-05-03 20:49 | 49.47339 | 8.62728 | 35023 ft | 414 kts | 159° |
| 2026-05-03 20:49 | 49.42096 | 8.66413 | 35022 ft | 415 kts | 159° |
| 2026-05-03 20:50 | 49.36843 | 8.70097 | 35022 ft | 415 kts | 159° |
| 2026-05-03 20:50 | 49.31577 | 8.73780 | 35008 ft | 417 kts | 159° |
| 2026-05-03 20:51 | 49.26298 | 8.77465 | 35007 ft | 417 kts | 159° |
| 2026-05-03 20:51 | 49.21010 | 8.81147 | 35011 ft | 418 kts | 159° |
| 2026-05-03 20:52 | 49.15717 | 8.84824 | 35006 ft | 419 kts | 159° |
| 2026-05-03 20:52 | 49.10410 | 8.88502 | 35006 ft | 419 kts | 159° |
| 2026-05-03 20:53 | 49.05099 | 8.92174 | 35009 ft | 419 kts | 159° |
| 2026-05-03 20:53 | 48.99818 | 8.95817 | 35010 ft | 420 kts | 159° |
| 2026-05-03 20:54 | 48.94491 | 8.99482 | 35003 ft | 420 kts | 159° |
| 2026-05-03 20:54 | 48.86491 | 9.04971 | 35011 ft | 421 kts | 159° |
| 2026-05-03 20:55 | 48.81149 | 9.08626 | 35018 ft | 421 kts | 159° |
| 2026-05-03 20:55 | 48.75803 | 9.12274 | 35019 ft | 422 kts | 159° |
| 2026-05-03 20:56 | 48.70449 | 9.15920 | 35020 ft | 422 kts | 159° |
| 2026-05-03 20:56 | 48.65087 | 9.19563 | 35018 ft | 422 kts | 159° |
| 2026-05-03 20:57 | 48.59724 | 9.23198 | 35023 ft | 422 kts | 159° |
| 2026-05-03 20:57 | 48.54357 | 9.26826 | 35018 ft | 423 kts | 159° |
| 2026-05-03 20:58 | 48.48989 | 9.30448 | 35016 ft | 423 kts | 159° |
| 2026-05-03 20:58 | 48.43620 | 9.34062 | 35022 ft | 423 kts | 159° |
| 2026-05-03 20:59 | 48.38240 | 9.37674 | 35022 ft | 423 kts | 159° |
| 2026-05-03 20:59 | 48.32862 | 9.41279 | 35027 ft | 423 kts | 159° |
| 2026-05-03 21:00 | 48.29297 | 9.43664 | 35031 ft | 424 kts | 159° |
| 2026-05-03 21:00 | 48.22502 | 9.49675 | 35043 ft | 429 kts | 143° |
| 2026-05-03 21:01 | 48.17906 | 9.55414 | 35045 ft | 430 kts | 143° |
| 2026-05-03 21:01 | 48.13308 | 9.61156 | 35045 ft | 430 kts | 143° |
| 2026-05-03 21:02 | 48.08690 | 9.66849 | 35044 ft | 430 kts | 143° |
| 2026-05-03 21:02 | 48.06329 | 9.69741 | 35041 ft | 430 kts | 143° |
| 2026-05-03 21:03 | 48.01689 | 9.75405 | 35046 ft | 430 kts | 143° |
| 2026-05-03 21:03 | 47.97081 | 9.81015 | 35040 ft | 430 kts | 143° |
| 2026-05-03 21:04 | 47.92439 | 9.86655 | 35027 ft | 430 kts | 143° |
| 2026-05-03 21:04 | 47.87800 | 9.92280 | 35043 ft | 430 kts | 143° |
| 2026-05-03 21:05 | 47.83154 | 9.97898 | 35037 ft | 430 kts | 143° |
| 2026-05-03 21:05 | 47.78510 | 10.03502 | 35033 ft | 430 kts | 143° |
| 2026-05-03 21:06 | 47.73866 | 10.09091 | 35043 ft | 430 kts | 143° |
| 2026-05-03 21:06 | 47.69219 | 10.14672 | 35039 ft | 429 kts | 143° |
| 2026-05-03 21:07 | 47.64570 | 10.20242 | 35052 ft | 430 kts | 143° |
| 2026-05-03 21:07 | 47.59917 | 10.25807 | 35049 ft | 430 kts | 144° |
| 2026-05-03 21:08 | 47.55242 | 10.31312 | 35055 ft | 429 kts | 147° |
| 2026-05-03 21:08 | 47.50290 | 10.36205 | 35060 ft | 428 kts | 150° |
| 2026-05-03 21:09 | 47.45298 | 10.40960 | 35057 ft | 425 kts | 149° |
| 2026-05-03 21:09 | 47.40343 | 10.45733 | 35069 ft | 425 kts | 149° |
| 2026-05-03 21:10 | 47.35392 | 10.50531 | 35060 ft | 427 kts | 149° |
| 2026-05-03 21:10 | 47.30416 | 10.55345 | 35066 ft | 428 kts | 149° |
| 2026-05-03 21:11 | 47.25462 | 10.60259 | 35070 ft | 431 kts | 147° |
| 2026-05-03 21:11 | 47.20623 | 10.65383 | 35099 ft | 431 kts | 147° |
| 2026-05-03 21:12 | 47.15755 | 10.70542 | 35099 ft | 432 kts | 147° |
| 2026-05-03 21:12 | 47.10863 | 10.75671 | 35106 ft | 432 kts | 147° |
| 2026-05-03 21:13 | 47.05965 | 10.80774 | 35117 ft | 432 kts | 147° |
| 2026-05-03 21:13 | 47.01066 | 10.85867 | 35129 ft | 431 kts | 147° |
| 2026-05-03 21:14 | 46.96987 | 10.90098 | 35148 ft | 433 kts | 147° |
| 2026-05-03 21:14 | 46.92062 | 10.95196 | 35158 ft | 434 kts | 147° |
| 2026-05-03 21:15 | 46.87123 | 11.00300 | 35151 ft | 436 kts | 147° |
| 2026-05-03 21:15 | 46.82160 | 11.05417 | 35158 ft | 437 kts | 147° |
| 2026-05-03 21:16 | 46.77514 | 11.11211 | 35148 ft | 441 kts | 139° |
| 2026-05-03 21:16 | 46.73071 | 11.17388 | 35125 ft | 441 kts | 139° |
| 2026-05-03 21:17 | 46.68618 | 11.23551 | 35112 ft | 442 kts | 139° |
| 2026-05-03 21:17 | 46.64128 | 11.29674 | 35091 ft | 443 kts | 139° |
| 2026-05-03 21:18 | 46.59620 | 11.35772 | 35079 ft | 442 kts | 139° |
| 2026-05-03 21:18 | 46.55107 | 11.41854 | 35083 ft | 442 kts | 139° |
| 2026-05-03 21:19 | 46.50595 | 11.47923 | 35077 ft | 442 kts | 139° |
| 2026-05-03 21:19 | 46.46080 | 11.53983 | 35087 ft | 442 kts | 139° |
| 2026-05-03 21:20 | 46.41560 | 11.60035 | 35090 ft | 443 kts | 139° |
| 2026-05-03 21:20 | 46.37031 | 11.66086 | 35088 ft | 443 kts | 140° |
| 2026-05-03 21:21 | 46.32501 | 11.72126 | 35111 ft | 443 kts | 140° |
| 2026-05-03 21:21 | 46.27996 | 11.78115 | 35120 ft | 443 kts | 139° |
| 2026-05-03 21:22 | 46.23449 | 11.84147 | 35128 ft | 444 kts | 140° |
| 2026-05-03 21:22 | 46.18885 | 11.90188 | 35118 ft | 445 kts | 139° |
| 2026-05-03 21:23 | 46.14306 | 11.96234 | 35112 ft | 447 kts | 139° |
| 2026-05-03 21:23 | 46.09709 | 12.02289 | 35107 ft | 448 kts | 139° |
| 2026-05-03 21:24 | 46.05099 | 12.08348 | 35109 ft | 449 kts | 139° |
| 2026-05-03 21:24 | 46.00476 | 12.14410 | 35107 ft | 450 kts | 139° |
| 2026-05-03 21:25 | 45.95838 | 12.20480 | 35102 ft | 451 kts | 139° |
| 2026-05-03 21:25 | 45.91190 | 12.26546 | 35099 ft | 452 kts | 139° |
| 2026-05-03 21:26 | 45.86836 | 12.33066 | 35105 ft | 453 kts | 132° |
| 2026-05-03 21:26 | 45.82760 | 12.39981 | 35098 ft | 454 kts | 131° |
| 2026-05-03 21:27 | 45.78685 | 12.46888 | 35099 ft | 454 kts | 131° |
| 2026-05-03 21:27 | 45.74567 | 12.53757 | 35095 ft | 454 kts | 131° |
| 2026-05-03 21:28 | 45.70432 | 12.60594 | 35092 ft | 455 kts | 132° |
| 2026-05-03 21:28 | 45.66286 | 12.67428 | 35089 ft | 455 kts | 131° |
| 2026-05-03 21:29 | 45.62134 | 12.74256 | 35094 ft | 455 kts | 131° |
| 2026-05-03 21:29 | 45.57979 | 12.81075 | 35091 ft | 455 kts | 131° |
| 2026-05-03 21:30 | 45.53818 | 12.87888 | 35090 ft | 455 kts | 131° |
| 2026-05-03 21:30 | 45.49650 | 12.94696 | 35094 ft | 456 kts | 131° |
| 2026-05-03 21:31 | 45.45502 | 13.01454 | 35096 ft | 456 kts | 131° |
| 2026-05-03 21:31 | 45.41323 | 13.08247 | 35095 ft | 456 kts | 131° |
| 2026-05-03 21:32 | 45.37136 | 13.15037 | 35095 ft | 457 kts | 131° |
| 2026-05-03 21:32 | 45.32940 | 13.21826 | 35099 ft | 457 kts | 131° |
| 2026-05-03 21:33 | 45.28618 | 13.28451 | 35099 ft | 457 kts | 135° |
| 2026-05-03 21:33 | 45.24054 | 13.34751 | 35099 ft | 458 kts | 136° |
| 2026-05-03 21:34 | 45.19452 | 13.41014 | 35099 ft | 459 kts | 136° |
| 2026-05-03 21:34 | 45.14862 | 13.47309 | 35100 ft | 459 kts | 136° |
| 2026-05-03 21:35 | 45.10277 | 13.53623 | 35098 ft | 460 kts | 136° |
| 2026-05-03 21:35 | 45.05688 | 13.59942 | 35101 ft | 461 kts | 135° |
| 2026-05-03 21:36 | 45.01087 | 13.66262 | 35105 ft | 461 kts | 136° |
| 2026-05-03 21:36 | 44.96474 | 13.72581 | 35102 ft | 462 kts | 135° |
| 2026-05-03 21:37 | 44.91848 | 13.78902 | 35106 ft | 463 kts | 135° |
| 2026-05-03 21:37 | 44.87216 | 13.85217 | 35103 ft | 464 kts | 135° |
| 2026-05-03 21:38 | 44.82571 | 13.91534 | 35103 ft | 464 kts | 135° |
| 2026-05-03 21:38 | 44.77979 | 13.97765 | 35104 ft | 465 kts | 135° |
| 2026-05-03 21:39 | 44.73316 | 14.04077 | 35103 ft | 465 kts | 135° |
| 2026-05-03 21:39 | 44.68651 | 14.10376 | 35101 ft | 465 kts | 135° |
| 2026-05-03 21:40 | 44.63975 | 14.16676 | 35104 ft | 465 kts | 135° |
| 2026-05-03 21:40 | 44.59301 | 14.22959 | 35101 ft | 465 kts | 135° |
| 2026-05-03 21:41 | 44.54620 | 14.29236 | 35096 ft | 465 kts | 135° |
| 2026-05-03 21:41 | 44.49939 | 14.35499 | 35099 ft | 465 kts | 135° |
| 2026-05-03 21:42 | 44.45253 | 14.41754 | 35095 ft | 465 kts | 135° |
| 2026-05-03 21:42 | 44.40562 | 14.47999 | 35095 ft | 465 kts | 135° |
| 2026-05-03 21:43 | 44.35873 | 14.54228 | 35096 ft | 465 kts | 135° |
| 2026-05-03 21:43 | 44.31176 | 14.60454 | 35097 ft | 465 kts | 135° |
| 2026-05-03 21:44 | 44.26481 | 14.66663 | 35095 ft | 465 kts | 135° |
| 2026-05-03 21:44 | 44.21780 | 14.72866 | 35097 ft | 465 kts | 135° |
| 2026-05-03 21:45 | 44.17073 | 14.79061 | 35100 ft | 465 kts | 135° |
| 2026-05-03 21:45 | 44.12364 | 14.85245 | 35097 ft | 465 kts | 135° |
| 2026-05-03 21:46 | 44.07654 | 14.91416 | 35094 ft | 465 kts | 136° |
| 2026-05-03 21:46 | 44.02941 | 14.97577 | 35089 ft | 465 kts | 136° |
| 2026-05-03 21:47 | 43.98254 | 15.03689 | 35092 ft | 465 kts | 136° |
| 2026-05-03 21:47 | 43.93539 | 15.09826 | 35095 ft | 465 kts | 136° |
| 2026-05-03 21:48 | 43.88821 | 15.15951 | 35090 ft | 465 kts | 136° |
| 2026-05-03 21:48 | 43.84097 | 15.22070 | 35094 ft | 464 kts | 136° |
| 2026-05-03 21:49 | 43.79376 | 15.28172 | 35101 ft | 464 kts | 136° |
| 2026-05-03 21:49 | 43.74649 | 15.34266 | 35103 ft | 464 kts | 136° |
| 2026-05-03 21:50 | 43.69927 | 15.40342 | 35107 ft | 464 kts | 136° |
| 2026-05-03 21:50 | 43.65204 | 15.46404 | 35101 ft | 463 kts | 136° |
| 2026-05-03 21:51 | 43.60477 | 15.52459 | 35104 ft | 463 kts | 136° |
| 2026-05-03 21:51 | 43.55754 | 15.58495 | 35106 ft | 463 kts | 136° |
| 2026-05-03 21:52 | 43.51027 | 15.64522 | 35105 ft | 463 kts | 136° |
| 2026-05-03 21:52 | 43.46294 | 15.70545 | 35102 ft | 463 kts | 136° |
| 2026-05-03 21:53 | 43.41562 | 15.76551 | 35106 ft | 463 kts | 136° |
| 2026-05-03 21:53 | 43.36827 | 15.82548 | 35107 ft | 463 kts | 136° |
| 2026-05-03 21:54 | 43.32120 | 15.88498 | 35108 ft | 463 kts | 136° |
| 2026-05-03 21:54 | 43.27380 | 15.94476 | 35105 ft | 463 kts | 136° |
| 2026-05-03 21:55 | 43.22634 | 16.00450 | 35088 ft | 463 kts | 136° |
| 2026-05-03 21:55 | 43.17882 | 16.06416 | 35095 ft | 463 kts | 136° |
| 2026-05-03 21:56 | 43.12786 | 16.11824 | 35109 ft | 464 kts | 144° |
| 2026-05-03 21:56 | 43.07466 | 16.16842 | 35101 ft | 465 kts | 144° |
| 2026-05-03 21:57 | 43.02141 | 16.21859 | 35098 ft | 465 kts | 144° |
| 2026-05-03 21:57 | 42.96836 | 16.26923 | 35113 ft | 465 kts | 143° |
| 2026-05-03 21:58 | 42.91544 | 16.31998 | 35110 ft | 465 kts | 143° |
| 2026-05-03 21:58 | 42.86245 | 16.37075 | 35108 ft | 466 kts | 143° |
| 2026-05-03 21:59 | 42.80943 | 16.42143 | 35114 ft | 466 kts | 143° |
| 2026-05-03 21:59 | 42.75629 | 16.47208 | 35115 ft | 466 kts | 143° |
| 2026-05-03 22:00 | 42.70316 | 16.52261 | 35115 ft | 466 kts | 143° |
| 2026-05-03 22:00 | 42.64999 | 16.57308 | 35113 ft | 466 kts | 143° |
| 2026-05-03 22:01 | 42.59671 | 16.62354 | 35112 ft | 467 kts | 143° |
| 2026-05-03 22:01 | 42.54380 | 16.67354 | 35113 ft | 467 kts | 143° |
| 2026-05-03 22:02 | 42.49048 | 16.72383 | 35112 ft | 467 kts | 143° |
| 2026-05-03 22:02 | 42.44573 | 16.76595 | 35115 ft | 467 kts | 143° |
| 2026-05-03 22:03 | 42.39264 | 16.81583 | 35119 ft | 468 kts | 143° |
| 2026-05-03 22:03 | 42.33916 | 16.86597 | 35116 ft | 468 kts | 143° |
| 2026-05-03 22:04 | 42.28556 | 16.91611 | 35119 ft | 469 kts | 143° |
| 2026-05-03 22:04 | 42.23191 | 16.96620 | 35119 ft | 469 kts | 143° |
| 2026-05-03 22:05 | 42.17810 | 17.01632 | 35121 ft | 471 kts | 143° |
| 2026-05-03 22:05 | 42.12405 | 17.06658 | 35126 ft | 473 kts | 143° |
| 2026-05-03 22:06 | 42.06974 | 17.11697 | 35126 ft | 475 kts | 143° |
| 2026-05-03 22:06 | 42.04040 | 17.14415 | 35124 ft | 476 kts | 143° |
| 2026-05-03 22:07 | 42.00431 | 17.17753 | 35120 ft | 473 kts | 143° |
| 2026-05-03 22:07 | 41.95012 | 17.22758 | 35126 ft | 474 kts | 143° |
| 2026-05-03 22:08 | 41.89242 | 17.27091 | 35137 ft | 479 kts | 155° |
| 2026-05-03 22:08 | 41.83096 | 17.30609 | 35126 ft | 481 kts | 156° |
| 2026-05-03 22:09 | 41.76920 | 17.34105 | 35130 ft | 482 kts | 156° |
| 2026-05-03 22:10 | 41.67670 | 17.39454 | 35135 ft | 483 kts | 155° |
| 2026-05-03 22:10 | 41.61557 | 17.43009 | 35123 ft | 476 kts | 155° |
| 2026-05-03 22:11 | 41.55469 | 17.46541 | 35144 ft | 478 kts | 155° |
| 2026-05-03 22:11 | 41.49358 | 17.50076 | 35137 ft | 480 kts | 155° |
| 2026-05-03 22:12 | 41.43262 | 17.53594 | 35136 ft | 481 kts | 155° |
| 2026-05-03 22:12 | 41.37130 | 17.57126 | 35129 ft | 480 kts | 155° |
| 2026-05-03 22:13 | 41.31003 | 17.60648 | 35136 ft | 480 kts | 155° |
| 2026-05-03 22:13 | 41.24860 | 17.64173 | 35138 ft | 481 kts | 155° |
| 2026-05-03 22:14 | 41.18706 | 17.67696 | 35140 ft | 482 kts | 155° |
| 2026-05-03 22:14 | 41.12548 | 17.71208 | 35131 ft | 481 kts | 155° |
| 2026-05-03 22:15 | 41.06398 | 17.74709 | 35141 ft | 481 kts | 155° |
| 2026-05-03 22:15 | 41.00258 | 17.78200 | 35135 ft | 480 kts | 155° |
| 2026-05-03 22:16 | 40.94138 | 17.81671 | 35125 ft | 475 kts | 155° |
| 2026-05-03 22:16 | 40.88094 | 17.85094 | 35140 ft | 473 kts | 155° |
| 2026-05-03 22:16 | 40.85060 | 17.86810 | 34967 ft | 475 kts | 155° |
| 2026-05-03 22:17 | 40.82028 | 17.88523 | 34641 ft | 472 kts | 155° |
| 2026-05-03 22:17 | 40.79025 | 17.90217 | 34257 ft | 468 kts | 155° |
| 2026-05-03 22:17 | 40.76038 | 17.91901 | 33852 ft | 465 kts | 155° |
| 2026-05-03 22:17 | 40.73069 | 17.93573 | 33434 ft | 462 kts | 155° |
| 2026-05-03 22:18 | 40.70119 | 17.95234 | 33039 ft | 459 kts | 155° |
| 2026-05-03 22:18 | 40.67192 | 17.96880 | 32656 ft | 456 kts | 155° |
| 2026-05-03 22:18 | 40.64349 | 17.98564 | 32276 ft | 452 kts | 149° |
| 2026-05-03 22:18 | 40.61734 | 18.00799 | 31915 ft | 445 kts | 139° |
| 2026-05-03 22:19 | 40.59448 | 18.03480 | 31597 ft | 437 kts | 129° |
| 2026-05-03 22:19 | 40.57541 | 18.06529 | 31240 ft | 429 kts | 121° |
| 2026-05-03 22:19 | 40.55807 | 18.09704 | 30896 ft | 425 kts | 120° |
| 2026-05-03 22:19 | 40.54104 | 18.12870 | 30539 ft | 423 kts | 120° |
| 2026-05-03 22:20 | 40.52412 | 18.16014 | 30183 ft | 421 kts | 120° |
| 2026-05-03 22:20 | 40.50721 | 18.19138 | 29768 ft | 418 kts | 120° |
| 2026-05-03 22:20 | 40.49029 | 18.22238 | 29375 ft | 415 kts | 120° |
| 2026-05-03 22:20 | 40.47349 | 18.25299 | 29020 ft | 411 kts | 120° |
| 2026-05-03 22:21 | 40.45679 | 18.28330 | 28630 ft | 408 kts | 120° |
| 2026-05-03 22:21 | 40.44019 | 18.31337 | 28254 ft | 405 kts | 120° |
| 2026-05-03 22:21 | 40.42369 | 18.34321 | 27892 ft | 402 kts | 120° |
| 2026-05-03 22:21 | 40.40734 | 18.37275 | 27516 ft | 399 kts | 120° |
| 2026-05-03 22:22 | 40.39108 | 18.40209 | 27156 ft | 396 kts | 120° |
| 2026-05-03 22:22 | 40.37491 | 18.43125 | 26796 ft | 394 kts | 120° |
| 2026-05-03 22:22 | 40.35887 | 18.46016 | 26444 ft | 391 kts | 120° |
| 2026-05-03 22:22 | 40.34291 | 18.48889 | 26089 ft | 388 kts | 120° |
| 2026-05-03 22:23 | 40.32706 | 18.51742 | 25734 ft | 386 kts | 120° |
| 2026-05-03 22:23 | 40.31127 | 18.54578 | 25380 ft | 384 kts | 120° |
| 2026-05-03 22:23 | 40.29559 | 18.57394 | 25031 ft | 382 kts | 120° |
| 2026-05-03 22:23 | 40.27996 | 18.60199 | 24682 ft | 380 kts | 120° |
| 2026-05-03 22:24 | 40.26440 | 18.62988 | 24337 ft | 378 kts | 120° |
| 2026-05-03 22:24 | 40.24891 | 18.65763 | 23988 ft | 377 kts | 120° |
| 2026-05-03 22:24 | 40.23346 | 18.68528 | 23605 ft | 376 kts | 120° |
| 2026-05-03 22:24 | 40.21828 | 18.71242 | 23203 ft | 374 kts | 120° |
| 2026-05-03 22:25 | 40.20276 | 18.74014 | 22836 ft | 371 kts | 120° |
| 2026-05-03 22:25 | 40.18755 | 18.76728 | 22477 ft | 369 kts | 120° |
| 2026-05-03 22:25 | 40.17264 | 18.79385 | 22134 ft | 366 kts | 120° |
| 2026-05-03 22:25 | 40.15763 | 18.82059 | 21788 ft | 363 kts | 120° |
| 2026-05-03 22:26 | 40.14274 | 18.84710 | 21455 ft | 361 kts | 120° |
| 2026-05-03 22:26 | 40.12793 | 18.87345 | 21114 ft | 358 kts | 120° |
| 2026-05-03 22:26 | 40.11325 | 18.89956 | 20778 ft | 356 kts | 120° |
| 2026-05-03 22:26 | 40.09861 | 18.92557 | 20439 ft | 354 kts | 120° |
| 2026-05-03 22:27 | 40.08405 | 18.95142 | 20115 ft | 352 kts | 120° |
| 2026-05-03 22:27 | 40.06958 | 18.97707 | 19778 ft | 350 kts | 120° |
| 2026-05-03 22:27 | 40.05518 | 19.00256 | 19456 ft | 348 kts | 120° |
| 2026-05-03 22:27 | 40.04099 | 19.02768 | 19312 ft | 340 kts | 120° |
| 2026-05-03 22:28 | 40.02703 | 19.05241 | 19031 ft | 338 kts | 120° |
| 2026-05-03 22:28 | 40.01315 | 19.07703 | 18725 ft | 336 kts | 120° |
| 2026-05-03 22:28 | 39.99934 | 19.10154 | 18405 ft | 335 kts | 120° |
| 2026-05-03 22:28 | 39.98556 | 19.12597 | 18035 ft | 334 kts | 120° |
| 2026-05-03 22:29 | 39.97180 | 19.15033 | 17695 ft | 333 kts | 120° |
| 2026-05-03 22:29 | 39.95810 | 19.17456 | 17344 ft | 331 kts | 120° |
| 2026-05-03 22:29 | 39.94447 | 19.19865 | 17007 ft | 330 kts | 120° |
| 2026-05-03 22:29 | 39.93090 | 19.22262 | 16681 ft | 328 kts | 120° |
| 2026-05-03 22:30 | 39.91739 | 19.24646 | 16355 ft | 326 kts | 120° |
| 2026-05-03 22:30 | 39.90394 | 19.27019 | 16033 ft | 325 kts | 120° |
| 2026-05-03 22:30 | 39.89054 | 19.29378 | 15710 ft | 323 kts | 120° |
| 2026-05-03 22:30 | 39.87718 | 19.31731 | 15381 ft | 322 kts | 120° |
| 2026-05-03 22:31 | 39.86389 | 19.34071 | 15066 ft | 321 kts | 121° |
| 2026-05-03 22:31 | 39.85063 | 19.36402 | 14752 ft | 320 kts | 121° |
| 2026-05-03 22:31 | 39.84189 | 19.37939 | 14540 ft | 319 kts | 121° |
| 2026-05-03 22:31 | 39.83987 | 19.38294 | 14489 ft | 319 kts | 121° |
| 2026-05-03 22:32 | 39.82664 | 19.40617 | 14167 ft | 319 kts | 121° |
| 2026-05-03 22:32 | 39.81344 | 19.42936 | 13844 ft | 318 kts | 121° |
| 2026-05-03 22:32 | 39.80029 | 19.45241 | 13489 ft | 317 kts | 121° |
| 2026-05-03 22:32 | 39.78718 | 19.47537 | 13155 ft | 315 kts | 121° |
| 2026-05-03 22:33 | 39.77443 | 19.49838 | 12831 ft | 311 kts | 117° |
| 2026-05-03 22:33 | 39.76376 | 19.52251 | 12554 ft | 305 kts | 112° |
| 2026-05-03 22:33 | 39.75407 | 19.54689 | 12241 ft | 303 kts | 111° |
| 2026-05-03 22:33 | 39.74455 | 19.57122 | 11933 ft | 301 kts | 111° |
| 2026-05-03 22:34 | 39.73503 | 19.59532 | 11635 ft | 299 kts | 112° |
| 2026-05-03 22:34 | 39.72546 | 19.61923 | 11322 ft | 298 kts | 112° |
| 2026-05-03 22:34 | 39.71587 | 19.64298 | 11018 ft | 296 kts | 112° |
| 2026-05-03 22:34 | 39.70641 | 19.66625 | 10716 ft | 295 kts | 113° |
| 2026-05-03 22:35 | 39.69680 | 19.68977 | 10416 ft | 294 kts | 113° |
| 2026-05-03 22:35 | 39.68712 | 19.71340 | 10225 ft | 289 kts | 113° |
| 2026-05-03 22:35 | 39.67777 | 19.73617 | 9983 ft | 285 kts | 113° |
| 2026-05-03 22:35 | 39.66847 | 19.75881 | 9686 ft | 283 kts | 113° |
| 2026-05-03 22:36 | 39.65936 | 19.78100 | 9372 ft | 282 kts | 114° |
| 2026-05-03 22:36 | 39.65017 | 19.80333 | 9095 ft | 280 kts | 114° |
| 2026-05-03 22:36 | 39.64100 | 19.82560 | 8805 ft | 279 kts | 114° |
| 2026-05-03 22:36 | 39.63187 | 19.84773 | 8521 ft | 277 kts | 114° |
| 2026-05-03 22:37 | 39.62198 | 19.86905 | 8222 ft | 279 kts | 129° |
| 2026-05-03 22:37 | 39.60604 | 19.88362 | 8155 ft | 288 kts | 158° |
| 2026-05-03 22:37 | 39.58644 | 19.88701 | 8102 ft | 284 kts | 189° |
| 2026-05-03 22:37 | 39.56822 | 19.87853 | 7720 ft | 282 kts | 212° |
| 2026-05-03 22:38 | 39.55151 | 19.86453 | 7334 ft | 284 kts | 216° |
| 2026-05-03 22:38 | 39.53530 | 19.85023 | 6943 ft | 287 kts | 216° |
| 2026-05-03 22:38 | 39.51860 | 19.83567 | 6513 ft | 291 kts | 215° |
| 2026-05-03 22:38 | 39.50181 | 19.82132 | 6323 ft | 284 kts | 215° |
| 2026-05-03 22:39 | 39.48555 | 19.80759 | 6223 ft | 275 kts | 214° |
| 2026-05-03 22:39 | 39.46926 | 19.79387 | 5706 ft | 282 kts | 214° |
| 2026-05-03 22:39 | 39.45200 | 19.78191 | 5322 ft | 284 kts | 197° |
| 2026-05-03 22:39 | 39.43242 | 19.78053 | 5048 ft | 282 kts | 167° |
| 2026-05-03 22:40 | 39.41509 | 19.79069 | 4936 ft | 271 kts | 142° |
| 2026-05-03 22:40 | 39.40321 | 19.80953 | 4519 ft | 270 kts | 114° |
| 2026-05-03 22:40 | 39.39849 | 19.83247 | 4298 ft | 261 kts | 91° |
| 2026-05-03 22:40 | 39.39843 | 19.85552 | 4181 ft | 252 kts | 87° |
| 2026-05-03 22:41 | 39.39934 | 19.87772 | 4088 ft | 242 kts | 77° |
| 2026-05-03 22:41 | 39.40346 | 19.89829 | 4011 ft | 232 kts | 71° |
| 2026-05-03 22:41 | 39.40817 | 19.91779 | 3946 ft | 222 kts | 70° |
| 2026-05-03 22:41 | 39.41260 | 19.93633 | 3750 ft | 214 kts | 71° |
| 2026-05-03 22:42 | 39.41807 | 19.95447 | 3370 ft | 212 kts | 53° |
| 2026-05-03 22:42 | 39.42947 | 19.96442 | 3226 ft | 194 kts | 9° |
| 2026-05-03 22:42 | 39.44279 | 19.96500 | 3032 ft | 192 kts | 359° |
| 2026-05-03 22:42 | 39.45593 | 19.96347 | 2776 ft | 188 kts | 351° |
| 2026-05-03 22:43 | 39.46850 | 19.96037 | 2526 ft | 185 kts | 347° |
| 2026-05-03 22:43 | 39.48077 | 19.95635 | 2305 ft | 178 kts | 345° |
| 2026-05-03 22:43 | 39.49220 | 19.95222 | 2081 ft | 163 kts | 345° |
| 2026-05-03 22:43 | 39.50271 | 19.94832 | 1853 ft | 149 kts | 345° |
| 2026-05-03 22:44 | 39.51243 | 19.94463 | 1644 ft | 143 kts | 342° |
| 2026-05-03 22:44 | 39.52150 | 19.93929 | 1385 ft | 143 kts | 334° |
| 2026-05-03 22:44 | 39.53032 | 19.93358 | 1273 ft | 142 kts | 335° |
| 2026-05-03 22:44 | 39.53958 | 19.92858 | 1138 ft | 147 kts | 341° |
| 2026-05-03 22:45 | 39.54943 | 19.92491 | 973 ft | 144 kts | 350° |
| 2026-05-03 22:45 | 39.55947 | 19.92268 | 756 ft | 149 kts | 351° |
| 2026-05-03 22:45 | 39.56972 | 19.92030 | 573 ft | 149 kts | 352° |
| 2026-05-03 22:45 | 39.57999 | 19.91786 | 359 ft | 151 kts | 351° |
| 2026-05-03 22:46 | 39.59023 | 19.91516 | 98 ft | 150 kts | 350° |
| 2026-05-03 22:46 | 39.60016 | 19.91262 | 20 ft | 134 kts | 349° |
| 2026-05-03 22:46 | 39.60714 | 19.91078 | 20 ft | 71 kts | 349° |
| 2026-05-03 22:46 | 39.61050 | 19.90992 | 20 ft | 34 kts | 349° |
| 2026-05-03 22:47 | 39.61182 | 19.90959 | 20 ft | 13 kts | 350° |
| 2026-05-03 22:47 | 39.61220 | 19.91033 | 19 ft | 12 kts | 105° |
| 2026-05-03 22:47 | 39.61160 | 19.91095 | 18 ft | 12 kts | 166° |
| 2026-05-03 22:47 | 39.61083 | 19.91115 | 18 ft | 11 kts | 168° |
| 2026-05-03 22:48 | 39.61004 | 19.91136 | 19 ft | 11 kts | 168° |
| 2026-05-03 22:48 | 39.60929 | 19.91157 | 18 ft | 11 kts | 168° |
| 2026-05-03 22:48 | 39.60857 | 19.91176 | 17 ft | 10 kts | 168° |
| 2026-05-03 22:48 | 39.60818 | 19.91204 | 17 ft | 5 kts | 103° |
| 2026-05-03 22:49 | 39.60822 | 19.91253 | 17 ft | 5 kts | 78° |
| 2026-05-03 22:49 | 39.60829 | 19.91300 | 19 ft | 5 kts | 79° |
| 2026-05-03 22:49 | 39.60831 | 19.91311 | 17 ft | 0 kts | 78° |